Time;durP1;ratioP1;P1;durP2;ratioP2;P2;SDS_P1;SDS_P2;PMS_P1;PMS_P2;Temp;Humidity;BMP_temperature;BMP_pressure;BME280_temperature;BME280_humidity;BME280_pressure;Samples;Min_cycle;Max_cycle;Signal;HPM_P1;HPM_P2
2022/01/15 00:01:16;;;;;;;47.88;23.80;;;5.70;99.90;;;;;;5040631;28;20210;-60
2022/01/15 00:03:43;;;;;;;38.63;20.90;;;5.70;99.90;;;;;;5043633;28;20214;-60
2022/01/15 00:06:10;;;;;;;41.80;22.05;;;5.70;99.90;;;;;;5038595;28;20206;-60
2022/01/15 00:08:37;;;;;;;43.47;22.88;;;5.70;99.90;;;;;;5036203;28;20198;-60
2022/01/15 00:11:04;;;;;;;46.20;24.83;;;5.80;99.90;;;;;;5036620;28;20206;-58
2022/01/15 00:13:31;;;;;;;46.50;24.25;;;5.70;99.90;;;;;;5037060;28;20221;-59
2022/01/15 00:16:07;;;;;;;48.88;23.70;;;5.70;99.90;;;;;;5036192;28;20206;-59
2022/01/15 00:18:43;;;;;;;43.65;20.88;;;5.70;99.90;;;;;;5034708;28;20190;-60
2022/01/15 00:21:11;;;;;;;47.65;22.80;;;5.80;99.90;;;;;;5034040;28;20186;-61
2022/01/15 00:23:39;;;;;;;48.05;23.80;;;5.70;99.90;;;;;;5034113;28;20292;-61
2022/01/15 00:26:06;;;;;;;43.95;23.13;;;5.70;99.90;;;;;;5038484;28;20213;-61
2022/01/15 00:28:33;;;;;;;43.15;24.00;;;5.70;99.90;;;;;;5038505;28;20210;-60
2022/01/15 00:31:01;;;;;;;46.53;23.40;;;5.70;99.90;;;;;;5038179;28;20202;-59
2022/01/15 00:33:30;;;;;;;42.75;23.50;;;5.70;99.90;;;;;;5037857;28;20230;-60
2022/01/15 00:35:57;;;;;;;43.88;25.77;;;5.70;99.90;;;;;;5038079;28;20284;-60
2022/01/15 00:38:24;;;;;;;40.80;21.52;;;5.70;99.90;;;;;;5037665;28;20209;-60
2022/01/15 00:40:51;;;;;;;42.85;24.27;;;5.70;99.90;;;;;;5037601;28;20641;-60
2022/01/15 00:43:19;;;;;;;41.80;23.98;;;5.70;99.90;;;;;;5037228;28;20230;-59
2022/01/15 00:45:46;;;;;;;41.97;23.70;;;5.70;99.90;;;;;;5037601;28;20202;-60
2022/01/15 00:48:15;;;;;;;47.78;22.95;;;5.70;99.90;;;;;;5037463;28;20575;-60
2022/01/15 00:50:43;;;;;;;48.78;24.70;;;5.70;99.90;;;;;;5037672;28;20206;-59
2022/01/15 00:53:10;;;;;;;47.25;24.90;;;5.70;99.90;;;;;;5037566;28;20222;-61
2022/01/15 00:55:37;;;;;;;45.38;23.83;;;5.70;99.90;;;;;;5037225;28;20735;-61
2022/01/15 00:58:04;;;;;;;44.97;24.30;;;5.70;99.90;;;;;;5037555;28;20202;-60
2022/01/15 01:00:31;;;;;;;48.88;24.40;;;5.70;99.90;;;;;;5037600;28;20662;-60
2022/01/15 01:02:59;;;;;;;46.17;23.77;;;5.70;99.90;;;;;;5037164;28;20230;-60
2022/01/15 01:05:27;;;;;;;43.25;23.95;;;5.70;99.90;;;;;;5037497;28;20198;-59
2022/01/15 01:07:56;;;;;;;45.78;23.60;;;5.70;99.90;;;;;;5037072;28;20697;-61
2022/01/15 01:24:15;;;;;;;41.88;23.65;;;5.70;99.90;;;;;;5038432;28;20210;-59
2022/01/15 01:26:46;;;;;;;46.13;22.95;;;5.70;99.90;;;;;;5044516;28;20328;-59
2022/01/15 01:29:25;;;;;;;47.25;23.35;;;5.60;99.90;;;;;;5038387;28;20273;-59
2022/01/15 01:31:59;;;;;;;46.55;22.27;;;5.60;99.90;;;;;;5036862;28;20191;-59
2022/01/15 01:34:28;;;;;;;49.10;24.00;;;5.60;99.90;;;;;;5036307;28;20261;-59
2022/01/15 01:37:03;;;;;;;40.00;23.35;;;5.60;99.90;;;;;;5035333;28;20211;-61
2022/01/15 01:39:39;;;;;;;45.60;23.38;;;5.60;99.90;;;;;;5036576;28;20186;-60
2022/01/15 01:42:14;;;;;;;41.80;22.45;;;5.60;99.90;;;;;;5036340;28;20202;-60
2022/01/15 01:44:58;;;;;;;39.08;21.30;;;5.60;99.90;;;;;;5037913;28;20292;-60
2022/01/15 01:47:36;;;;;;;44.33;23.23;;;5.60;99.90;;;;;;5036770;28;20355;-61
2022/01/15 01:50:04;;;;;;;52.63;26.17;;;5.60;99.90;;;;;;5036390;28;20182;-60
2022/01/15 01:52:32;;;;;;;54.80;23.33;;;5.60;99.90;;;;;;5036192;28;20198;-59
2022/01/15 01:54:59;;;;;;;45.50;23.73;;;5.60;99.90;;;;;;5036315;28;20222;-60
2022/01/15 01:57:26;;;;;;;46.13;23.00;;;5.60;99.90;;;;;;5036070;28;20206;-60
2022/01/15 01:59:53;;;;;;;43.97;23.77;;;5.60;99.90;;;;;;5035709;28;20697;-60
2022/01/15 02:02:20;;;;;;;41.40;23.40;;;5.60;99.90;;;;;;5035834;28;20198;-61
2022/01/15 02:04:47;;;;;;;45.85;21.35;;;5.60;99.90;;;;;;5035414;28;20229;-60
2022/01/15 02:07:15;;;;;;;49.20;23.00;;;5.60;99.90;;;;;;5036116;28;20209;-59
2022/01/15 02:09:43;;;;;;;46.20;23.65;;;5.60;99.90;;;;;;5036231;28;20206;-59
2022/01/15 02:12:11;;;;;;;44.05;22.15;;;5.60;99.90;;;;;;5036091;28;20568;-60
2022/01/15 02:14:38;;;;;;;44.35;23.05;;;5.60;99.90;;;;;;5035652;28;20226;-59
2022/01/15 02:17:05;;;;;;;49.13;23.83;;;5.60;99.90;;;;;;5036025;28;20202;-59
2022/01/15 02:19:43;;;;;;;43.65;22.58;;;5.60;99.90;;;;;;5036594;28;20206;-59
2022/01/15 02:24:55;;;;;;;51.33;24.02;;;5.60;99.90;;;;;;5035598;28;20423;-59
2022/01/15 02:27:22;;;;;;;50.85;23.27;;;5.60;99.90;;;;;;5035099;28;20198;-60
2022/01/15 02:29:49;;;;;;;45.45;23.30;;;5.60;99.90;;;;;;5035156;28;20209;-60
2022/01/15 02:32:16;;;;;;;44.20;23.52;;;5.60;99.90;;;;;;5035076;28;20198;-60
2022/01/15 02:34:45;;;;;;;44.95;24.00;;;5.60;99.90;;;;;;5035198;28;20239;-60
2022/01/15 02:37:12;;;;;;;47.40;22.95;;;5.60;99.90;;;;;;5035187;28;20198;-59
2022/01/15 02:39:39;;;;;;;44.35;23.35;;;5.60;99.90;;;;;;5035081;28;20223;-60
2022/01/15 02:42:06;;;;;;;43.88;22.58;;;5.60;99.90;;;;;;5034668;28;20214;-60
2022/01/15 02:44:38;;;;;;;44.10;22.60;;;5.60;99.90;;;;;;5034890;28;20230;-60
2022/01/15 02:49:51;;;;;;;40.42;20.77;;;5.60;99.90;;;;;;5034833;28;20211;-60
2022/01/15 02:52:18;;;;;;;40.00;21.38;;;5.60;99.90;;;;;;5035437;28;20206;-59
2022/01/15 02:54:45;;;;;;;44.47;23.90;;;5.70;99.90;;;;;;5034871;28;20682;-59
2022/01/15 02:57:12;;;;;;;47.75;22.85;;;5.60;99.90;;;;;;5037016;28;20206;-59
2022/01/15 02:59:39;;;;;;;45.70;23.48;;;5.60;99.90;;;;;;5038433;28;20198;-58
2022/01/15 03:02:06;;;;;;;48.22;23.10;;;5.60;99.90;;;;;;5035534;28;20214;-59
2022/01/15 03:04:33;;;;;;;47.20;23.20;;;5.60;99.90;;;;;;5034885;28;20249;-59
2022/01/15 03:07:03;;;;;;;40.75;22.98;;;5.60;99.90;;;;;;5034763;28;20202;-59
2022/01/15 03:09:30;;;;;;;43.40;24.20;;;5.60;99.90;;;;;;5035062;28;20587;-59
2022/01/15 03:12:01;;;;;;;37.70;21.15;;;5.60;99.90;;;;;;5034718;28;20264;-60
2022/01/15 03:14:31;;;;;;;46.33;22.40;;;5.60;99.90;;;;;;5035063;28;20678;-59
2022/01/15 03:16:58;;;;;;;53.30;22.67;;;5.60;99.90;;;;;;5034725;28;20206;-59
2022/01/15 03:19:25;;;;;;;43.35;23.30;;;5.60;99.90;;;;;;5034529;28;20206;-60
2022/01/15 03:21:52;;;;;;;40.75;21.63;;;5.60;99.90;;;;;;5034587;28;20198;-60
2022/01/15 03:24:20;;;;;;;40.65;22.17;;;5.60;99.90;;;;;;5034168;28;20219;-60
2022/01/15 03:26:47;;;;;;;50.25;23.33;;;5.60;99.90;;;;;;5033967;28;20553;-60
2022/01/15 03:29:14;;;;;;;41.95;21.23;;;5.60;99.90;;;;;;5034164;28;20198;-60
2022/01/15 03:31:41;;;;;;;45.65;20.58;;;5.60;99.90;;;;;;5033983;28;20581;-59
2022/01/15 03:34:08;;;;;;;40.45;20.90;;;5.60;99.90;;;;;;5034026;28;20249;-59
2022/01/15 03:36:36;;;;;;;39.28;20.70;;;5.50;99.90;;;;;;5034332;28;20207;-60
2022/01/15 03:39:03;;;;;;;45.58;21.80;;;5.50;99.90;;;;;;5033937;28;20697;-60
2022/01/15 03:41:32;;;;;;;47.25;22.23;;;5.40;99.90;;;;;;5034138;28;20222;-59
2022/01/15 03:43:59;;;;;;;47.67;23.80;;;5.40;99.90;;;;;;5034054;28;20241;-60
2022/01/15 03:46:26;;;;;;;46.13;23.55;;;5.40;99.90;;;;;;5034580;28;20206;-60
2022/01/15 03:48:53;;;;;;;41.20;22.13;;;5.50;99.90;;;;;;5034170;28;20202;-61
2022/01/15 03:51:20;;;;;;;45.20;23.35;;;5.50;99.90;;;;;;5034079;28;20525;-60
2022/01/15 03:53:47;;;;;;;46.53;22.33;;;5.50;99.90;;;;;;5033893;28;20694;-60
2022/01/15 03:56:14;;;;;;;46.05;23.15;;;5.50;99.90;;;;;;5033721;28;20596;-60
2022/01/15 03:58:43;;;;;;;48.85;25.02;;;5.50;99.90;;;;;;5033638;28;20225;-60
2022/01/15 04:01:10;;;;;;;46.40;23.65;;;5.50;99.90;;;;;;5033785;28;20213;-60
2022/01/15 04:03:38;;;;;;;45.13;25.25;;;5.50;99.90;;;;;;5033483;28;20226;-59
2022/01/15 04:09:24;;;;;;;53.38;22.88;;;5.50;99.90;;;;;;5132969;27;20338;-59
2022/01/15 04:11:51;;;;;;;72.32;24.08;;;5.50;99.90;;;;;;5132350;27;20202;-60
2022/01/15 04:14:19;;;;;;;44.45;21.58;;;5.50;99.90;;;;;;5131737;28;20230;-59
2022/01/15 04:16:46;;;;;;;42.25;23.02;;;5.50;99.90;;;;;;5132131;27;20678;-59
2022/01/15 04:19:13;;;;;;;43.15;22.80;;;5.50;99.90;;;;;;5132129;27;20207;-59
2022/01/15 04:21:40;;;;;;;47.92;23.80;;;5.50;99.90;;;;;;5107619;22;20250;-56
2022/01/15 04:24:07;;;;;;;46.33;23.15;;;5.50;99.90;;;;;;5070190;28;20598;-52
2022/01/15 04:26:35;;;;;;;46.70;22.33;;;5.50;99.90;;;;;;5070075;28;20205;-54
2022/01/15 04:29:04;;;;;;;45.17;22.50;;;5.50;99.90;;;;;;5069783;28;20221;-54
2022/01/15 04:31:46;;;;;;;47.45;23.30;;;5.50;99.90;;;;;;5069769;28;20225;-55
2022/01/15 04:34:14;;;;;;;42.83;21.70;;;5.50;99.90;;;;;;5070087;28;20189;-54
2022/01/15 04:36:41;;;;;;;51.47;23.08;;;5.60;99.90;;;;;;5069948;28;20200;-55
2022/01/15 04:39:08;;;;;;;43.05;21.20;;;5.50;99.90;;;;;;5070015;28;20208;-54
2022/01/15 04:41:36;;;;;;;46.25;22.38;;;5.50;99.90;;;;;;5069806;28;20225;-53
2022/01/15 04:44:05;;;;;;;53.80;21.30;;;5.50;99.90;;;;;;5069555;28;20204;-53
2022/01/15 04:46:32;;;;;;;40.92;20.60;;;5.50;99.90;;;;;;5069868;28;20205;-54
2022/01/15 04:48:59;;;;;;;46.33;22.23;;;5.50;99.90;;;;;;5069393;28;20715;-53
2022/01/15 04:51:26;;;;;;;42.78;20.92;;;5.50;99.90;;;;;;5069334;28;20701;-54
2022/01/15 04:53:53;;;;;;;35.42;18.55;;;5.40;99.90;;;;;;5070212;28;20201;-53
2022/01/15 04:56:20;;;;;;;39.88;23.95;;;5.40;99.90;;;;;;5069635;28;20208;-53
2022/01/15 04:58:49;;;;;;;40.83;22.08;;;5.40;99.90;;;;;;5069251;28;20201;-54
2022/01/15 05:01:16;;;;;;;44.33;21.23;;;5.50;99.90;;;;;;5069048;28;20217;-53
2022/01/15 05:03:43;;;;;;;41.75;20.52;;;5.50;99.90;;;;;;5069218;28;20208;-56
2022/01/15 05:06:11;;;;;;;41.65;20.58;;;5.50;99.90;;;;;;5069093;28;20213;-55
2022/01/15 05:08:40;;;;;;;39.60;19.90;;;5.40;99.90;;;;;;5069236;28;20221;-55
2022/01/15 05:11:14;;;;;;;45.83;23.58;;;5.50;99.90;;;;;;5069135;28;20225;-54
2022/01/15 05:13:41;;;;;;;39.70;21.05;;;5.50;99.90;;;;;;5069033;28;20180;-55
2022/01/15 05:16:10;;;;;;;40.75;21.77;;;5.50;99.90;;;;;;5069244;28;20241;-55
2022/01/15 05:18:37;;;;;;;40.25;20.27;;;5.50;99.90;;;;;;5068139;28;20202;-55
2022/01/15 05:21:04;;;;;;;37.40;20.17;;;5.50;99.90;;;;;;5055553;28;20232;-55
2022/01/15 05:23:31;;;;;;;37.90;19.60;;;5.40;99.90;;;;;;5056945;28;20212;-55
2022/01/15 05:25:58;;;;;;;32.53;19.13;;;5.50;99.90;;;;;;5055998;28;20209;-54
2022/01/15 05:28:25;;;;;;;39.67;21.13;;;5.40;99.90;;;;;;5055928;28;20217;-54
2022/01/15 05:30:52;;;;;;;38.63;19.42;;;5.40;99.90;;;;;;5056114;28;20222;-55
2022/01/15 05:33:20;;;;;;;46.33;19.70;;;5.40;99.90;;;;;;5055848;28;20209;-54
2022/01/15 05:35:47;;;;;;;40.63;20.63;;;5.50;99.90;;;;;;5055576;28;20597;-54
2022/01/15 05:38:15;;;;;;;46.88;21.02;;;5.40;99.90;;;;;;5055623;28;20201;-54
2022/01/15 05:40:42;;;;;;;47.08;22.58;;;5.50;99.90;;;;;;5055146;28;20705;-55
2022/01/15 05:43:09;;;;;;;40.30;19.02;;;5.50;99.90;;;;;;5055200;28;20686;-55
2022/01/15 05:45:36;;;;;;;43.47;21.58;;;5.50;99.90;;;;;;5055332;28;20573;-54
2022/01/15 05:48:03;;;;;;;36.60;18.60;;;5.50;99.90;;;;;;5055327;28;20222;-54
2022/01/15 05:50:31;;;;;;;38.83;20.55;;;5.50;99.90;;;;;;5055482;28;20217;-55
2022/01/15 05:52:59;;;;;;;38.78;20.27;;;5.50;99.90;;;;;;5055091;28;20685;-55
2022/01/15 05:55:26;;;;;;;37.92;21.80;;;5.50;99.90;;;;;;5055330;28;20240;-55
2022/01/15 05:57:53;;;;;;;45.28;21.00;;;5.50;99.90;;;;;;5054499;28;20202;-55
2022/01/15 06:00:20;;;;;;;38.70;20.95;;;5.50;99.90;;;;;;5055081;28;20226;-55
2022/01/15 06:02:47;;;;;;;41.63;20.50;;;5.50;99.90;;;;;;5054825;28;20198;-54
2022/01/15 06:05:15;;;;;;;40.00;20.50;;;5.50;99.90;;;;;;5054657;28;20205;-53
2022/01/15 06:07:43;;;;;;;38.17;20.25;;;5.50;99.90;;;;;;5054816;28;20201;-55
2022/01/15 06:10:11;;;;;;;36.67;19.75;;;5.50;99.90;;;;;;5054747;28;20213;-55
2022/01/15 06:12:43;;;;;;;44.08;22.17;;;5.50;99.90;;;;;;5054599;28;20202;-54
2022/01/15 06:15:11;;;;;;;40.22;21.65;;;5.50;99.90;;;;;;5054861;28;20193;-55
2022/01/15 06:17:38;;;;;;;40.25;20.02;;;5.50;99.90;;;;;;5054914;28;20197;-55
2022/01/15 06:20:07;;;;;;;48.95;23.35;;;5.50;99.90;;;;;;5054412;28;20210;-54
2022/01/15 06:22:34;;;;;;;39.20;21.05;;;5.60;99.90;;;;;;5054760;28;20205;-54
2022/01/15 06:25:03;;;;;;;38.40;20.38;;;5.60;99.90;;;;;;5055081;28;20213;-54
2022/01/15 06:27:31;;;;;;;38.30;21.80;;;5.60;99.90;;;;;;5055781;28;20197;-55
2022/01/15 06:29:58;;;;;;;44.38;21.90;;;5.60;99.90;;;;;;5054697;28;20222;-56
2022/01/15 06:32:25;;;;;;;38.55;20.60;;;5.60;99.90;;;;;;5053332;28;20688;-55
2022/01/15 06:34:52;;;;;;;41.45;20.77;;;5.60;99.90;;;;;;5054793;28;20206;-55
2022/01/15 06:37:20;;;;;;;40.75;20.25;;;5.60;99.90;;;;;;5054318;28;20206;-56
2022/01/15 06:39:47;;;;;;;38.58;21.20;;;5.60;99.90;;;;;;5054665;28;20202;-55
2022/01/15 06:42:16;;;;;;;39.33;21.90;;;5.60;99.90;;;;;;5054266;28;20267;-54
2022/01/15 06:44:43;;;;;;;37.17;20.70;;;5.60;99.90;;;;;;5055397;28;20221;-54
2022/01/15 06:47:10;;;;;;;35.95;19.05;;;5.60;99.90;;;;;;5053937;28;20210;-53
2022/01/15 06:49:38;;;;;;;38.60;21.17;;;5.60;99.90;;;;;;5053771;28;20225;-55
2022/01/15 06:52:06;;;;;;;40.40;20.98;;;5.60;99.90;;;;;;5054017;28;20248;-53
2022/01/15 06:54:33;;;;;;;42.63;21.38;;;5.70;99.90;;;;;;5053803;28;20209;-53
2022/01/15 06:57:00;;;;;;;37.72;20.08;;;5.70;99.90;;;;;;5053771;28;20208;-54
2022/01/15 06:59:28;;;;;;;40.60;20.60;;;5.70;99.90;;;;;;5053811;28;20198;-55
2022/01/15 07:01:55;;;;;;;37.97;19.27;;;5.70;99.90;;;;;;5053967;28;20226;-55
2022/01/15 07:04:22;;;;;;;37.35;19.67;;;5.70;99.90;;;;;;5053936;28;20205;-55
2022/01/15 07:06:49;;;;;;;38.33;19.85;;;5.70;99.90;;;;;;5053519;28;20197;-55
2022/01/15 07:09:17;;;;;;;38.60;19.08;;;5.70;99.90;;;;;;5053782;28;20221;-55
2022/01/15 07:11:44;;;;;;;36.15;20.58;;;5.70;99.90;;;;;;5053661;28;20589;-55
2022/01/15 07:14:11;;;;;;;38.83;21.92;;;5.70;99.90;;;;;;5053730;28;20220;-55
2022/01/15 07:16:39;;;;;;;42.50;20.20;;;5.60;99.90;;;;;;5053479;28;20674;-54
2022/01/15 07:19:06;;;;;;;40.95;19.35;;;5.60;99.90;;;;;;5053709;28;20681;-55
2022/01/15 07:21:33;;;;;;;41.67;20.45;;;5.60;99.90;;;;;;5053242;28;20233;-55
2022/01/15 07:24:00;;;;;;;42.03;21.42;;;5.70;99.90;;;;;;5053550;28;20232;-55
2022/01/15 07:26:27;;;;;;;40.20;21.30;;;5.60;99.90;;;;;;5053354;28;20670;-55
2022/01/15 07:28:54;;;;;;;41.63;19.98;;;5.70;99.90;;;;;;5053122;28;20727;-55
2022/01/15 07:31:21;;;;;;;36.38;19.27;;;5.70;99.90;;;;;;5053294;28;20252;-55
2022/01/15 07:33:50;;;;;;;38.47;20.48;;;5.70;99.90;;;;;;5053138;28;20681;-55
2022/01/15 07:36:19;;;;;;;35.17;19.92;;;5.70;99.90;;;;;;5053070;28;20297;-56
2022/01/15 07:38:46;;;;;;;37.97;19.35;;;5.70;99.90;;;;;;5053041;28;20565;-55
2022/01/15 07:41:13;;;;;;;34.63;18.73;;;5.70;99.90;;;;;;5053261;28;20237;-55
2022/01/15 07:43:42;;;;;;;35.97;17.00;;;5.70;99.90;;;;;;5053068;28;20205;-53
2022/01/15 07:46:09;;;;;;;33.45;20.27;;;5.70;99.90;;;;;;5053013;28;20670;-56
2022/01/15 07:48:36;;;;;;;38.83;20.55;;;5.70;99.90;;;;;;5053140;28;20222;-55
2022/01/15 07:51:04;;;;;;;34.10;19.45;;;5.70;99.90;;;;;;5053594;28;20221;-56
2022/01/15 07:53:32;;;;;;;39.17;20.90;;;5.70;99.90;;;;;;5052801;28;20209;-55
2022/01/15 07:55:59;;;;;;;37.17;19.08;;;5.70;99.90;;;;;;5053138;28;20206;-55
2022/01/15 07:58:26;;;;;;;39.83;19.90;;;5.70;99.90;;;;;;5052853;28;20198;-54
2022/01/15 08:00:53;;;;;;;45.47;21.23;;;5.60;99.90;;;;;;5053599;28;20228;-55
2022/01/15 08:03:20;;;;;;;41.28;19.60;;;5.50;99.90;;;;;;5053233;28;20202;-55
2022/01/15 08:05:47;;;;;;;42.60;18.60;;;5.50;99.90;;;;;;5053166;28;20201;-55
2022/01/15 08:08:16;;;;;;;41.65;21.75;;;5.50;99.90;;;;;;5052850;28;20205;-54
2022/01/15 08:10:44;;;;;;;41.28;20.30;;;5.50;99.90;;;;;;5053220;28;20249;-54
2022/01/15 08:13:12;;;;;;;40.78;18.73;;;5.50;99.90;;;;;;5052993;28;20206;-54
2022/01/15 08:15:39;;;;;;;41.65;19.30;;;5.50;99.90;;;;;;5053340;28;20209;-53
2022/01/15 08:18:06;;;;;;;44.60;19.73;;;5.60;99.90;;;;;;5052642;28;20674;-54
2022/01/15 08:20:33;;;;;;;45.95;19.98;;;5.60;99.90;;;;;;5052752;28;20225;-54
2022/01/15 08:23:01;;;;;;;46.65;20.77;;;5.60;99.90;;;;;;5053324;28;20182;-54
2022/01/15 08:25:30;;;;;;;43.40;20.88;;;5.60;99.90;;;;;;5053339;28;20293;-54
2022/01/15 08:27:57;;;;;;;35.60;18.65;;;5.60;99.90;;;;;;5052793;28;20208;-54
2022/01/15 08:30:24;;;;;;;43.83;19.50;;;5.60;99.90;;;;;;5052944;28;20229;-55
2022/01/15 08:32:52;;;;;;;38.80;19.13;;;5.60;99.90;;;;;;5053162;28;20217;-54
2022/01/15 08:35:19;;;;;;;46.38;19.05;;;5.70;99.90;;;;;;5052707;28;20220;-55
2022/01/15 08:37:46;;;;;;;41.28;18.60;;;5.70;99.90;;;;;;5053144;28;20213;-53
2022/01/15 08:40:15;;;;;;;41.65;17.63;;;5.70;99.90;;;;;;5052784;28;20209;-55
2022/01/15 08:42:44;;;;;;;34.85;18.20;;;5.80;99.90;;;;;;5052021;28;20206;-54
2022/01/15 08:45:13;;;;;;;35.80;16.65;;;5.80;99.90;;;;;;5052854;28;20217;-54
2022/01/15 08:47:40;;;;;;;33.90;17.33;;;5.80;99.90;;;;;;5052674;28;20205;-55
2022/01/15 08:50:09;;;;;;;27.80;15.65;;;5.90;99.90;;;;;;5053543;28;20229;-54
2022/01/15 08:52:37;;;;;;;38.53;19.55;;;5.90;99.90;;;;;;5054698;28;20205;-53
2022/01/15 08:55:05;;;;;;;31.58;16.85;;;5.90;99.90;;;;;;5055171;28;20661;-54
2022/01/15 08:57:32;;;;;;;35.28;18.88;;;5.90;99.90;;;;;;5056641;28;20205;-53
2022/01/15 09:00:01;;;;;;;32.58;17.70;;;6.00;99.90;;;;;;5057357;28;20197;-53
2022/01/15 09:02:28;;;;;;;30.98;16.35;;;6.00;99.90;;;;;;5056887;28;20210;-55
2022/01/15 09:04:55;;;;;;;31.95;16.17;;;6.10;99.90;;;;;;5056234;28;20689;-54
2022/01/15 09:07:22;;;;;;;28.75;16.38;;;6.10;99.90;;;;;;5056913;28;20201;-56
2022/01/15 09:09:50;;;;;;;30.40;15.95;;;6.10;99.90;;;;;;5056274;28;20222;-55
2022/01/15 09:12:17;;;;;;;27.50;16.20;;;6.10;99.90;;;;;;5056447;28;20233;-54
2022/01/15 09:14:44;;;;;;;31.35;16.13;;;6.10;99.90;;;;;;5056569;28;20268;-55
2022/01/15 09:17:13;;;;;;;30.75;16.55;;;6.10;99.90;;;;;;5056259;28;20214;-55
2022/01/15 09:19:40;;;;;;;30.98;17.10;;;6.10;99.90;;;;;;5056998;28;20632;-54
2022/01/15 09:22:11;;;;;;;32.20;17.50;;;6.20;99.90;;;;;;5055594;28;20662;-55
2022/01/15 09:24:38;;;;;;;31.42;17.08;;;6.20;99.90;;;;;;5056776;28;20197;-56
2022/01/15 09:32:33;;;;;;;26.67;14.57;;;6.40;99.90;;;;;;5055704;28;20204;-56
2022/01/15 09:35:00;;;;;;;29.98;15.95;;;6.40;99.90;;;;;;5055680;28;20206;-55
2022/01/15 09:37:27;;;;;;;27.88;14.63;;;6.40;99.90;;;;;;5055537;28;20205;-55
2022/01/15 09:39:54;;;;;;;25.90;15.65;;;6.50;99.90;;;;;;5056024;28;20201;-54
2022/01/15 09:42:23;;;;;;;26.05;15.27;;;6.50;99.90;;;;;;5056071;28;20320;-54
2022/01/15 09:44:50;;;;;;;26.08;16.05;;;6.60;99.90;;;;;;5056146;28;20616;-54
2022/01/15 09:47:20;;;;;;;26.92;14.60;;;6.60;99.90;;;;;;5056627;28;20662;-54
2022/01/15 09:49:49;;;;;;;27.70;15.30;;;6.70;99.90;;;;;;5056024;28;20267;-55
2022/01/15 09:52:17;;;;;;;24.15;14.02;;;6.80;99.90;;;;;;5056406;28;20228;-53
2022/01/15 09:54:45;;;;;;;25.90;14.40;;;6.80;99.90;;;;;;5056093;28;20213;-52
2022/01/15 09:57:12;;;;;;;28.27;15.80;;;6.90;99.90;;;;;;5055821;28;20201;-52
2022/01/15 09:59:39;;;;;;;23.13;14.27;;;7.00;99.90;;;;;;5055643;28;20665;-54
2022/01/15 10:02:07;;;;;;;27.67;15.80;;;7.10;99.90;;;;;;5055657;28;20225;-54
2022/01/15 10:04:35;;;;;;;21.77;13.95;;;7.10;99.90;;;;;;5055638;28;20220;-54
2022/01/15 10:07:12;;;;;;;23.35;13.50;;;7.20;99.90;;;;;;5055272;28;20209;-55
2022/01/15 10:09:39;;;;;;;24.73;14.52;;;7.20;99.90;;;;;;5055351;28;20216;-54
2022/01/15 10:12:07;;;;;;;31.08;15.35;;;7.30;99.90;;;;;;5054892;28;20224;-54
2022/01/15 10:14:36;;;;;;;25.05;15.52;;;7.30;99.90;;;;;;5055370;28;20210;-55
2022/01/15 10:17:19;;;;;;;24.98;15.45;;;7.40;99.90;;;;;;5055038;28;20208;-54
2022/01/15 10:19:46;;;;;;;20.45;13.68;;;7.40;99.90;;;;;;5055785;28;20182;-55
2022/01/15 10:22:17;;;;;;;20.67;14.02;;;7.30;99.90;;;;;;5097769;22;20233;-57
2022/01/15 10:24:53;;;;;;;20.50;12.32;;;7.20;99.90;;;;;;5074914;28;20497;-58
2022/01/15 10:27:28;;;;;;;21.00;13.48;;;7.20;99.90;;;;;;5074668;28;20547;-59
2022/01/15 10:29:59;;;;;;;17.63;11.73;;;7.20;99.90;;;;;;5075258;28;20254;-60
2022/01/15 10:32:27;;;;;;;22.48;13.00;;;7.20;99.90;;;;;;5074496;28;20700;-60
2022/01/15 10:34:55;;;;;;;21.25;14.10;;;7.20;99.90;;;;;;5074912;28;20205;-59
2022/01/15 10:37:26;;;;;;;19.63;13.60;;;7.20;99.90;;;;;;5074907;28;20563;-59
2022/01/15 10:39:59;;;;;;;20.90;13.52;;;7.20;99.90;;;;;;5074510;28;20653;-59
2022/01/15 10:42:27;;;;;;;22.35;14.43;;;7.20;99.90;;;;;;5074922;28;20274;-60
2022/01/15 10:44:55;;;;;;;21.30;13.40;;;7.20;99.90;;;;;;5074595;28;20668;-60
2022/01/15 10:47:25;;;;;;;23.00;13.20;;;7.20;99.90;;;;;;5074514;28;20201;-59
2022/01/15 10:49:53;;;;;;;21.70;12.77;;;7.30;99.90;;;;;;5075705;28;20574;-60
2022/01/15 10:52:24;;;;;;;18.92;12.95;;;7.40;99.90;;;;;;5075841;28;20217;-59
2022/01/15 10:55:03;;;;;;;23.48;15.00;;;7.50;99.90;;;;;;5076103;28;20185;-59
2022/01/15 10:57:32;;;;;;;23.98;13.98;;;7.50;99.90;;;;;;5077013;28;20212;-59
2022/01/15 11:00:05;;;;;;;17.33;12.85;;;7.60;99.90;;;;;;5076975;28;20208;-60
2022/01/15 11:02:32;;;;;;;19.50;13.80;;;7.70;99.90;;;;;;5075131;28;20227;-59
2022/01/15 11:04:59;;;;;;;21.30;12.35;;;7.80;99.90;;;;;;5074953;28;20208;-59
2022/01/15 11:07:27;;;;;;;22.13;13.35;;;7.70;99.90;;;;;;5074932;28;20227;-59
2022/01/15 11:09:54;;;;;;;19.17;12.75;;;7.70;99.90;;;;;;5074562;28;20568;-58
2022/01/15 11:12:27;;;;;;;22.42;12.82;;;7.70;99.90;;;;;;5073994;28;20220;-59
2022/01/15 11:14:54;;;;;;;20.85;13.68;;;7.70;99.90;;;;;;5074464;28;20220;-60
2022/01/15 11:17:21;;;;;;;19.55;12.30;;;7.70;99.90;;;;;;5073421;28;20201;-59
2022/01/15 11:19:53;;;;;;;24.52;12.85;;;7.60;99.90;;;;;;5073860;28;20197;-60
2022/01/15 11:22:22;;;;;;;16.77;12.48;;;7.50;99.90;;;;;;5073897;28;20267;-60
2022/01/15 11:24:51;;;;;;;18.20;11.82;;;7.40;99.90;;;;;;5074208;28;20255;-59
2022/01/15 11:27:19;;;;;;;19.95;13.00;;;7.30;99.90;;;;;;5074837;28;20201;-59
2022/01/15 11:29:48;;;;;;;18.88;12.02;;;7.20;99.90;;;;;;5074477;28;20217;-60
2022/01/15 11:32:17;;;;;;;18.38;12.77;;;7.20;99.90;;;;;;5075403;28;20244;-60
2022/01/15 11:35:00;;;;;;;15.02;10.48;;;7.20;99.90;;;;;;5075329;28;20307;-59
2022/01/15 11:37:27;;;;;;;17.90;11.40;;;7.20;99.90;;;;;;5079866;28;20354;-59
2022/01/15 11:39:56;;;;;;;17.52;12.23;;;7.20;99.90;;;;;;5075731;28;20197;-59
2022/01/15 11:42:28;;;;;;;18.80;12.05;;;7.20;99.90;;;;;;5075185;28;20778;-59
2022/01/15 11:44:56;;;;;;;21.30;12.73;;;7.20;99.90;;;;;;5074351;28;20209;-59
2022/01/15 11:47:25;;;;;;;16.63;12.18;;;7.20;99.90;;;;;;5075591;28;20588;-58
2022/01/15 11:49:53;;;;;;;14.57;10.75;;;7.10;99.90;;;;;;5074172;28;20312;-59
2022/01/15 11:52:44;;;;;;;18.17;11.90;;;7.10;99.90;;;;;;5074297;28;20224;-60
2022/01/15 11:55:18;;;;;;;15.35;11.45;;;7.10;99.90;;;;;;5074117;28;20181;-60
2022/01/15 11:57:55;;;;;;;16.35;11.07;;;7.10;99.90;;;;;;5078830;28;20193;-59
2022/01/15 12:00:33;;;;;;;17.50;11.00;;;7.10;99.90;;;;;;5080253;28;20196;-59
2022/01/15 12:03:15;;;;;;;16.95;12.15;;;7.20;99.90;;;;;;5080817;28;20254;-60
2022/01/15 12:05:58;;;;;;;20.23;10.82;;;7.30;99.90;;;;;;5081831;28;20195;-59
2022/01/15 12:08:30;;;;;;;17.23;9.35;;;7.40;99.90;;;;;;5079073;28;20204;-59
2022/01/15 12:11:04;;;;;;;14.57;8.18;;;7.50;99.90;;;;;;5078940;28;20227;-57
2022/01/15 12:13:42;;;;;;;12.30;6.72;;;7.50;99.90;;;;;;5077949;28;20192;-56
2022/01/15 12:16:39;;;;;;;12.05;6.80;;;7.60;99.90;;;;;;5078161;28;20291;-59
2022/01/15 12:19:07;;;;;;;9.35;5.95;;;7.70;99.90;;;;;;5080771;28;20191;-59
2022/01/15 12:21:45;;;;;;;10.45;6.80;;;7.80;99.90;;;;;;5080747;28;20228;-59
2022/01/15 12:24:42;;;;;;;11.27;7.35;;;7.90;99.90;;;;;;5079150;28;20201;-60
2022/01/15 12:27:15;;;;;;;12.57;6.85;;;7.90;99.90;;;;;;5077431;28;20189;-59
2022/01/15 12:29:43;;;;;;;15.45;8.30;;;8.00;99.90;;;;;;5076345;28;20185;-60
2022/01/15 12:32:11;;;;;;;10.45;7.07;;;7.90;99.90;;;;;;5079280;28;20262;-59
2022/01/15 12:34:39;;;;;;;11.88;8.20;;;7.90;99.90;;;;;;5078696;28;20296;-59
2022/01/15 12:37:14;;;;;;;12.43;7.72;;;7.80;99.90;;;;;;5078390;28;20232;-59
2022/01/15 12:39:41;;;;;;;14.65;8.55;;;7.80;99.90;;;;;;5079324;28;20241;-58
2022/01/15 12:42:12;;;;;;;13.68;8.43;;;7.80;99.90;;;;;;5078431;28;20225;-58
2022/01/15 12:44:44;;;;;;;12.10;9.32;;;7.90;99.90;;;;;;5077679;28;20186;-58
2022/01/15 12:47:12;;;;;;;13.35;10.40;;;7.90;99.90;;;;;;5077515;28;20208;-58
2022/01/15 12:49:41;;;;;;;16.70;11.45;;;8.00;99.90;;;;;;5077235;28;20197;-58
2022/01/15 12:52:10;;;;;;;14.20;10.80;;;8.00;99.90;;;;;;5077955;28;20222;-59
2022/01/15 12:54:37;;;;;;;26.77;15.93;;;8.00;99.90;;;;;;5077574;28;20200;-59
2022/01/15 12:57:05;;;;;;;22.13;14.20;;;8.00;99.90;;;;;;5077802;28;20197;-63
2022/01/15 12:59:34;;;;;;;19.40;13.55;;;8.00;99.90;;;;;;5077283;28;20291;-59
2022/01/15 13:02:02;;;;;;;22.77;14.65;;;8.00;99.90;;;;;;5076859;28;20266;-60
2022/01/15 13:04:29;;;;;;;17.13;11.55;;;8.00;99.90;;;;;;5077185;28;20213;-58
2022/01/15 13:07:00;;;;;;;19.23;11.75;;;8.00;99.90;;;;;;5076710;28;20542;-59
2022/01/15 13:09:41;;;;;;;17.98;11.18;;;7.90;99.90;;;;;;5077155;28;20208;-59
2022/01/15 13:12:11;;;;;;;19.90;12.70;;;8.00;99.90;;;;;;5076918;28;20227;-58
2022/01/15 13:14:41;;;;;;;17.67;11.23;;;7.90;99.90;;;;;;5077374;28;20216;-60